Time;durP1;ratioP1;P1;durP2;ratioP2;P2;SDS_P1;SDS_P2;PMS_P1;PMS_P2;Temp;Humidity;BMP_temperature;BMP_pressure;BME280_temperature;BME280_humidity;BME280_pressure;Samples;Min_cycle;Max_cycle;Signal;HPM_P1;HPM_P2
2024/01/05 00:00:39;;;;;;;17.70;7.53;;;;;;;3.44;83.38;99274.25;2555393;28;20045;-82
2024/01/05 00:01:52;;;;;;;21.35;7.78;;;;;;;3.44;83.43;99263.06;2555129;28;20048;-80
2024/01/05 00:03:07;;;;;;;12.95;7.32;;;;;;;3.46;83.58;99264.78;2554650;28;20519;-80
2024/01/05 00:04:20;;;;;;;16.38;6.15;;;;;;;3.48;83.47;99259.59;2554571;28;20044;-80
2024/01/05 00:05:35;;;;;;;17.15;7.10;;;;;;;3.50;83.19;99265.63;2547254;28;20049;-81
2024/01/05 00:06:49;;;;;;;13.32;7.60;;;;;;;3.46;83.43;99259.63;2554870;28;20133;-81
2024/01/05 00:08:04;;;;;;;13.00;6.90;;;;;;;3.46;83.46;99272.53;2555534;28;20049;-79
2024/01/05 00:09:17;;;;;;;13.20;5.57;;;;;;;3.45;83.53;99263.06;2555004;28;20041;-83
2024/01/05 00:10:32;;;;;;;8.95;5.93;;;;;;;3.44;83.45;99271.66;2554259;28;20063;-80
2024/01/05 00:11:47;;;;;;;12.73;5.60;;;;;;;3.42;83.65;99275.97;2554585;28;20059;-81
2024/01/05 00:13:02;;;;;;;9.13;5.72;;;;;;;3.42;83.53;99275.13;2555155;28;20497;-83
2024/01/05 00:14:15;;;;;;;17.27;7.10;;;;;;;3.41;83.54;99281.16;2554098;28;20048;-82
2024/01/05 00:15:30;;;;;;;12.95;6.18;;;;;;;3.41;83.63;99288.88;2554720;28;20052;-83
2024/01/05 00:16:43;;;;;;;10.50;6.60;;;;;;;3.38;83.60;99281.13;2555049;28;20055;-81
2024/01/05 00:17:58;;;;;;;16.85;6.57;;;;;;;3.37;83.57;99290.59;2554855;28;20044;-82
2024/01/05 00:19:11;;;;;;;16.48;6.93;;;;;;;3.35;83.47;99287.13;2554146;28;20069;-81
2024/01/05 00:20:25;;;;;;;15.73;6.43;;;;;;;3.35;83.63;99286.28;2554916;28;20040;-79
2024/01/05 00:21:39;;;;;;;15.50;6.15;;;;;;;3.34;83.58;99274.28;2554708;28;20053;-83
2024/01/05 00:22:53;;;;;;;11.88;5.90;;;;;;;3.34;83.68;99275.13;2554657;28;20037;-80
2024/01/05 00:24:07;;;;;;;12.15;4.40;;;;;;;3.33;83.60;99276.00;2558481;28;20056;-81
2024/01/05 00:25:21;;;;;;;12.45;4.43;;;;;;;3.33;83.63;99275.13;2553565;28;21348;-83
2024/01/05 00:26:40;;;;;;;9.07;4.20;;;;;;;3.32;83.70;99276.84;2546218;28;20045;-81
2024/01/05 00:27:55;;;;;;;10.82;3.83;;;;;;;3.31;83.41;99274.28;2555042;28;20048;-82
2024/01/05 00:29:09;;;;;;;11.77;6.25;;;;;;;3.29;83.48;99271.69;2555835;28;20048;-81
2024/01/05 00:30:23;;;;;;;12.30;3.95;;;;;;;3.28;83.66;99273.41;2554402;28;20493;-80
2024/01/05 00:31:37;;;;;;;11.68;5.15;;;;;;;3.31;83.50;99279.44;2554988;28;20044;-83
2024/01/05 00:32:51;;;;;;;9.60;3.67;;;;;;;3.29;83.56;99284.59;2554075;28;20123;-82
2024/01/05 00:34:05;;;;;;;10.73;4.43;;;;;;;3.27;83.53;99271.69;2554726;28;20449;-82
2024/01/05 00:35:19;;;;;;;11.63;4.72;;;;;;;3.25;83.52;99276.00;2554172;28;20040;-82
2024/01/05 00:36:33;;;;;;;9.40;5.53;;;;;;;3.22;83.59;99275.13;2555238;28;20055;-81
2024/01/05 00:37:47;;;;;;;10.98;4.68;;;;;;;3.22;83.63;99270.81;2554834;28;20048;-84
2024/01/05 00:39:01;;;;;;;8.93;4.35;;;;;;;3.21;83.55;99252.81;2555207;28;20043;-83
2024/01/05 00:40:16;;;;;;;10.85;4.38;;;;;;;3.19;83.59;99262.25;2554996;28;20047;-81
2024/01/05 00:41:30;;;;;;;12.80;5.45;;;;;;;3.17;83.71;99256.22;2555648;28;20101;-83
2024/01/05 00:42:45;;;;;;;8.98;4.75;;;;;;;3.16;83.62;99259.69;2555311;28;20467;-80
2024/01/05 00:43:59;;;;;;;14.75;5.20;;;;;;;3.17;83.66;99251.06;2556098;28;20044;-83
2024/01/05 00:45:14;;;;;;;11.45;4.93;;;;;;;3.17;83.68;99251.94;2555738;28;20068;-79
2024/01/05 00:46:27;;;;;;;11.93;5.43;;;;;;;3.17;83.66;99256.22;2555436;28;20040;-80
2024/01/05 00:47:42;;;;;;;8.95;5.22;;;;;;;3.16;83.74;99251.94;2555452;28;20511;-80
2024/01/05 00:48:55;;;;;;;11.48;5.13;;;;;;;3.15;83.71;99252.78;2556086;28;20044;-81
2024/01/05 00:50:10;;;;;;;9.50;4.75;;;;;;;3.15;83.69;99245.94;2554823;28;20547;-82
2024/01/05 00:51:23;;;;;;;11.55;6.40;;;;;;;3.15;83.77;99245.94;2554182;28;20055;-78
2024/01/05 00:52:38;;;;;;;14.70;5.93;;;;;;;3.16;83.79;99244.22;2554659;28;20127;-83
2024/01/05 00:53:51;;;;;;;9.68;7.65;;;;;;;3.17;83.72;99245.91;2554462;28;20048;-81
2024/01/05 00:55:06;;;;;;;17.65;6.57;;;;;;;3.17;83.74;99246.78;2554851;28;20361;-82
2024/01/05 00:56:19;;;;;;;20.08;5.35;;;;;;;3.17;83.83;99244.19;2554146;28;20048;-80
2024/01/05 00:57:34;;;;;;;15.00;5.72;;;;;;;3.16;83.85;99242.50;2554889;28;20054;-84
2024/01/05 00:58:47;;;;;;;12.32;5.88;;;;;;;3.15;83.83;99240.78;2553623;28;20036;-81
2024/01/05 01:00:04;;;;;;;11.32;6.07;;;;;;;3.16;83.81;99239.91;2554871;28;20066;-82
2024/01/05 01:01:18;;;;;;;13.70;5.70;;;;;;;3.17;nan;99235.59;2554505;28;20044;-80
2024/01/05 01:02:32;;;;;;;11.95;5.00;;;;;;;3.16;83.84;99239.91;2554126;28;20416;-80
2024/01/05 01:03:45;;;;;;;10.23;4.88;;;;;;;3.16;83.85;99236.47;2554429;28;20044;-80
2024/01/05 01:05:00;;;;;;;12.65;5.47;;;;;;;3.16;83.95;99244.22;2555263;28;20046;-82
2024/01/05 01:06:13;;;;;;;8.80;6.30;;;;;;;3.13;83.90;99234.75;2553705;28;20417;-80
2024/01/05 01:07:28;;;;;;;13.10;5.45;;;;;;;3.15;83.89;99232.16;2554715;28;20045;-83
2024/01/05 01:08:41;;;;;;;8.05;4.70;;;;;;;3.14;84.10;99226.16;2554289;28;20056;-83
2024/01/05 01:09:56;;;;;;;11.45;4.72;;;;;;;3.15;83.94;99232.16;2554854;28;20045;-79
2024/01/05 01:11:13;;;;;;;7.97;4.90;;;;;;;3.16;84.04;99223.59;2554150;28;20037;-83
2024/01/05 01:12:28;;;;;;;12.18;5.65;;;;;;;3.15;84.02;99224.44;2554546;28;20058;-84
2024/01/05 01:13:42;;;;;;;10.38;5.93;;;;;;;3.15;83.91;99225.31;2554965;28;20055;-83
2024/01/05 01:14:56;;;;;;;11.77;7.43;;;;;;;3.16;83.97;99227.03;2553670;28;20041;-81
2024/01/05 01:16:11;;;;;;;12.95;5.60;;;;;;;3.16;84.08;99221.88;2555703;28;20516;-79
2024/01/05 01:17:25;;;;;;;10.18;5.85;;;;;;;3.16;83.84;99227.03;2554204;28;20059;-81
2024/01/05 01:18:39;;;;;;;11.68;5.85;;;;;;;3.15;84.25;99225.31;2554688;28;20458;-82
2024/01/05 01:19:53;;;;;;;12.55;6.63;;;;;;;3.15;84.03;99224.44;2554277;28;20037;-82
2024/01/05 01:21:07;;;;;;;11.15;8.20;;;;;;;3.15;83.78;99221.84;2554723;28;20052;-81
2024/01/05 01:22:21;;;;;;;13.65;6.35;;;;;;;3.15;83.82;99221.84;2554144;28;20048;-81
2024/01/05 01:23:35;;;;;;;12.55;5.68;;;;;;;3.16;83.96;99228.75;2555098;28;20052;-82
2024/01/05 01:24:49;;;;;;;11.95;5.78;;;;;;;3.15;83.97;99222.75;2567901;22;20500;-79
2024/01/05 01:26:03;;;;;;;10.88;5.05;;;;;;;3.14;83.85;99222.72;2552222;28;20044;-79
2024/01/05 01:27:17;;;;;;;14.63;6.05;;;;;;;3.12;83.68;99217.56;2545693;28;20053;-78
2024/01/05 01:28:31;;;;;;;13.02;5.53;;;;;;;3.10;83.69;99211.56;2551054;28;20500;-78
2024/01/05 01:29:46;;;;;;;12.05;5.97;;;;;;;3.09;83.69;99219.31;2549083;28;20055;-78
2024/01/05 01:30:59;;;;;;;12.15;5.38;;;;;;;3.04;83.54;99216.72;2546507;28;20040;-78
2024/01/05 01:32:15;;;;;;;10.35;4.90;;;;;;;3.02;83.49;99206.44;2552309;28;20087;-78
2024/01/05 01:33:28;;;;;;;11.20;7.30;;;;;;;3.00;83.53;99208.16;2544113;28;20049;-77
2024/01/05 01:34:43;;;;;;;9.48;6.32;;;;;;;2.98;83.53;99212.44;2551839;28;20422;-78
2024/01/05 01:35:56;;;;;;;12.68;5.13;;;;;;;2.93;83.46;99205.56;2548017;28;20049;-78
2024/01/05 01:37:11;;;;;;;13.85;7.18;;;;;;;2.90;83.63;99203.00;2542596;28;20071;-77
2024/01/05 01:38:24;;;;;;;10.10;5.15;;;;;;;2.88;83.50;99207.28;2541919;28;20051;-78
2024/01/05 01:39:39;;;;;;;12.70;5.22;;;;;;;2.84;83.63;99206.44;2542361;28;20055;-77
2024/01/05 01:40:55;;;;;;;13.88;6.28;;;;;;;2.84;83.76;99207.31;2542333;28;20045;-77
2024/01/05 01:42:09;;;;;;;11.13;4.88;;;;;;;2.84;83.57;99214.19;2541759;28;20456;-78
2024/01/05 01:43:25;;;;;;;15.80;5.07;;;;;;;2.84;83.75;99215.03;2542593;28;20048;-78
2024/01/05 01:44:39;;;;;;;9.88;6.93;;;;;;;2.82;83.68;99206.44;2543739;28;20443;-77
2024/01/05 01:45:53;;;;;;;8.82;4.50;;;;;;;2.80;83.55;99209.88;2552165;28;20049;-78
2024/01/05 01:47:08;;;;;;;9.93;5.32;;;;;;;2.78;83.60;99214.16;2551540;28;20508;-77
2024/01/05 01:48:23;;;;;;;8.13;5.97;;;;;;;2.74;83.68;99207.31;2552338;28;20516;-78
2024/01/05 01:49:37;;;;;;;12.38;5.20;;;;;;;2.70;83.65;99211.59;2552251;28;20048;-78
2024/01/05 01:50:53;;;;;;;11.80;5.90;;;;;;;2.67;83.69;99208.16;2551792;28;20631;-79
2024/01/05 01:52:08;;;;;;;12.73;5.75;;;;;;;2.64;83.69;99215.91;2552346;28;20135;-78
2024/01/05 01:53:23;;;;;;;13.15;4.80;;;;;;;2.60;83.70;99222.75;2552141;28;20040;-78
2024/01/05 01:54:38;;;;;;;7.82;6.30;;;;;;;2.58;83.80;99209.88;2551489;28;20110;-79
2024/01/05 01:55:51;;;;;;;12.27;5.43;;;;;;;2.58;83.79;99220.19;2548953;28;20052;-78
2024/01/05 01:57:06;;;;;;;13.40;6.03;;;;;;;2.56;83.74;99219.31;2542124;28;20493;-79
2024/01/05 01:58:21;;;;;;;16.65;5.53;;;;;;;2.56;83.86;99215.91;2541960;28;20052;-78
2024/01/05 01:59:36;;;;;;;13.50;5.63;;;;;;;2.57;83.98;99212.44;2543047;28;20045;-78
2024/01/05 02:00:50;;;;;;;21.17;7.75;;;;;;;2.58;84.01;99214.16;2552146;28;20044;-78
2024/01/05 02:02:04;;;;;;;17.42;5.88;;;;;;;2.58;84.04;99199.59;2551710;28;20412;-78
2024/01/05 02:03:18;;;;;;;16.73;6.22;;;;;;;2.59;84.02;99203.88;2552119;28;20049;-77
2024/01/05 02:04:34;;;;;;;10.85;6.65;;;;;;;2.60;84.03;99207.28;2552453;28;20054;-78
2024/01/05 02:05:47;;;;;;;12.43;6.65;;;;;;;2.60;83.91;99200.41;2551671;28;20056;-78
2024/01/05 02:07:02;;;;;;;9.82;5.78;;;;;;;2.59;84.04;99201.28;2551621;28;20068;-78
2024/01/05 02:08:16;;;;;;;14.45;6.15;;;;;;;2.59;84.03;99203.88;2552155;28;20497;-78
2024/01/05 02:09:31;;;;;;;16.15;6.05;;;;;;;2.58;84.04;99203.84;2543839;28;20508;-78
2024/01/05 02:10:44;;;;;;;11.68;5.68;;;;;;;2.58;84.12;99209.88;2543944;28;20053;-78
2024/01/05 02:11:59;;;;;;;13.32;6.35;;;;;;;2.58;83.89;99204.75;2552077;28;20183;-78
2024/01/05 02:13:12;;;;;;;13.52;6.10;;;;;;;2.56;84.05;99201.28;2552949;28;20047;-80
2024/01/05 02:14:27;;;;;;;10.15;5.35;;;;;;;2.51;83.95;99205.59;2552646;28;20043;-78
2024/01/05 02:15:40;;;;;;;18.27;7.72;;;;;;;2.50;83.92;99198.69;2552163;28;20357;-79
2024/01/05 02:16:55;;;;;;;12.15;5.40;;;;;;;2.49;83.94;99198.72;2552601;28;20044;-78
2024/01/05 02:18:11;;;;;;;13.13;6.28;;;;;;;2.46;83.88;99197.00;2546081;28;20055;-78
2024/01/05 02:19:25;;;;;;;9.98;5.93;;;;;;;2.43;83.88;99189.28;2542072;28;20132;-78
2024/01/05 02:20:44;;;;;;;9.70;5.28;;;;;;;2.40;83.84;99194.41;2542179;28;20045;-78
2024/01/05 02:21:59;;;;;;;13.90;5.57;;;;;;;2.37;83.76;99195.25;2542170;28;20056;-78
2024/01/05 02:23:21;;;;;;;14.48;5.60;;;;;;;2.34;83.83;99186.69;2541892;28;20580;-79
2024/01/05 02:24:35;;;;;;;12.00;5.22;;;;;;;2.28;83.66;99190.09;2550725;28;20501;-78
2024/01/05 02:25:49;;;;;;;12.18;5.30;;;;;;;2.25;83.71;99184.97;2552504;28;20049;-78
2024/01/05 02:27:04;;;;;;;11.70;5.43;;;;;;;2.23;83.67;99190.97;2547090;28;20040;-78
2024/01/05 02:28:18;;;;;;;10.77;4.70;;;;;;;2.20;83.88;99191.81;2542213;28;20714;-78
2024/01/05 02:29:32;;;;;;;15.90;5.32;;;;;;;2.15;83.69;99186.66;2542271;28;20429;-78
2024/01/05 02:30:46;;;;;;;10.82;5.93;;;;;;;2.12;83.60;99194.38;2541572;28;20056;-78
2024/01/05 02:32:00;;;;;;;11.27;5.32;;;;;;;2.09;83.69;99188.34;2545960;28;20045;-78
2024/01/05 02:33:14;;;;;;;8.15;5.65;;;;;;;2.06;83.63;99185.78;2547186;28;20045;-78
2024/01/05 02:34:28;;;;;;;10.75;6.53;;;;;;;2.03;83.75;99184.06;2551891;28;20037;-78
2024/01/05 02:35:42;;;;;;;10.23;4.95;;;;;;;2.02;83.82;99182.34;2552070;28;20048;-78
2024/01/05 02:36:56;;;;;;;13.18;5.75;;;;;;;2.01;83.80;99188.31;2552334;28;20595;-77
2024/01/05 02:38:09;;;;;;;11.15;4.80;;;;;;;2.00;83.89;99178.91;2551581;28;20055;-77
2024/01/05 02:39:25;;;;;;;13.95;6.13;;;;;;;1.99;83.88;99176.31;2544494;28;20572;-77
2024/01/05 02:40:39;;;;;;;8.70;4.72;;;;;;;1.96;83.71;99172.91;2552352;28;20053;-78
2024/01/05 02:41:54;;;;;;;10.23;4.65;;;;;;;1.94;83.80;99169.47;2550876;28;20124;-77
2024/01/05 02:43:07;;;;;;;20.83;9.15;;;;;;;1.93;83.86;99164.31;2548305;28;20067;-76
2024/01/05 02:44:22;;;;;;;10.10;4.80;;;;;;;1.90;83.84;99157.44;2546418;28;20044;-77
2024/01/05 02:45:35;;;;;;;13.55;4.95;;;;;;;1.88;83.94;99159.13;2543832;28;20071;-77
2024/01/05 02:46:50;;;;;;;9.68;4.85;;;;;;;1.87;83.94;99164.28;2543451;28;20048;-77
2024/01/05 02:48:04;;;;;;;14.75;6.00;;;;;;;1.88;83.92;99158.28;2544179;28;20052;-78
2024/01/05 02:49:19;;;;;;;14.70;5.78;;;;;;;1.87;83.91;99161.72;2543738;28;20067;-78
2024/01/05 02:50:33;;;;;;;14.43;6.55;;;;;;;1.86;83.99;99150.59;2543898;28;20421;-79
2024/01/05 02:51:47;;;;;;;11.85;5.72;;;;;;;1.84;84.02;99154.84;2554005;28;20087;-78
2024/01/05 02:53:01;;;;;;;10.32;4.90;;;;;;;1.82;83.97;99158.28;2553850;28;20045;-78
2024/01/05 02:54:15;;;;;;;11.13;4.95;;;;;;;1.81;84.27;99148.81;2553977;28;20037;-78
2024/01/05 02:55:30;;;;;;;7.55;4.57;;;;;;;1.82;84.23;99148.00;2546376;28;20045;-78
2024/01/05 02:56:44;;;;;;;14.82;6.43;;;;;;;1.81;84.04;99151.41;2546495;28;20052;-78
2024/01/05 02:58:02;;;;;;;13.52;6.40;;;;;;;1.80;84.20;99149.69;2550414;28;20549;-78
2024/01/05 02:59:16;;;;;;;7.78;5.55;;;;;;;1.79;84.16;99143.69;2550149;28;20040;-77
2024/01/05 03:00:36;;;;;;;18.13;6.88;;;;;;;1.81;84.20;99142.00;2554030;28;20485;-77
2024/01/05 03:01:50;;;;;;;7.63;5.57;;;;;;;1.80;84.30;99140.25;2546080;28;20130;-77
2024/01/05 03:03:04;;;;;;;13.95;6.50;;;;;;;1.81;84.10;99135.97;2553241;28;20531;-78
2024/01/05 03:04:19;;;;;;;11.73;5.53;;;;;;;1.80;84.23;99131.69;2553236;28;20106;-77
2024/01/05 03:05:32;;;;;;;10.35;4.47;;;;;;;1.79;84.25;99138.56;2545639;28;20053;-78
2024/01/05 03:06:47;;;;;;;7.32;4.47;;;;;;;1.80;84.18;99134.25;2553554;28;20051;-77
2024/01/05 03:08:00;;;;;;;7.43;4.57;;;;;;;1.80;84.26;99129.13;2554053;28;20050;-78
2024/01/05 03:09:15;;;;;;;12.35;5.57;;;;;;;1.81;84.35;99130.81;2553934;28;20063;-78
2024/01/05 03:10:29;;;;;;;8.30;5.22;;;;;;;1.81;84.41;99123.09;2553541;28;20489;-78
2024/01/05 03:11:44;;;;;;;11.10;4.97;;;;;;;1.79;84.24;99123.13;2553616;28;20072;-78
2024/01/05 03:12:57;;;;;;;11.57;5.13;;;;;;;1.78;84.16;99126.53;2553583;28;20048;-77
2024/01/05 03:14:13;;;;;;;8.27;4.60;;;;;;;1.78;84.22;99117.97;2553100;28;20044;-76
2024/01/05 03:15:27;;;;;;;14.18;8.23;;;;;;;1.77;84.27;99119.69;2553655;28;20524;-78
2024/01/05 03:16:41;;;;;;;11.82;5.13;;;;;;;1.78;84.27;99115.38;2544153;28;20053;-77
2024/01/05 03:17:54;;;;;;;10.23;5.60;;;;;;;1.80;84.35;99111.13;2543770;28;20631;-78
2024/01/05 03:19:09;;;;;;;9.70;4.85;;;;;;;1.82;84.44;99110.25;2548405;28;20037;-78
2024/01/05 03:20:22;;;;;;;7.00;4.40;;;;;;;1.85;84.54;99111.97;2553384;28;20461;-77
2024/01/05 03:21:37;;;;;;;9.15;4.40;;;;;;;1.88;84.43;99101.69;2553351;28;20048;-77
2024/01/05 03:22:50;;;;;;;10.52;5.22;;;;;;;1.90;84.73;99105.13;2552976;28;20045;-78
2024/01/05 03:24:05;;;;;;;8.95;5.03;;;;;;;1.92;84.47;99100.84;2553559;28;20040;-77
2024/01/05 03:25:19;;;;;;;11.23;5.20;;;;;;;1.94;84.64;99099.16;2547013;28;20052;-77
2024/01/05 03:26:35;;;;;;;18.25;7.63;;;;;;;1.97;84.68;99099.13;2551285;28;20538;-78
2024/01/05 03:27:48;;;;;;;15.63;4.25;;;;;;;2.00;84.68;99093.16;2551464;28;20056;-78
2024/01/05 03:29:03;;;;;;;18.00;6.32;;;;;;;2.05;84.75;99099.16;2547718;28;20040;-78
2024/01/05 03:30:16;;;;;;;10.63;4.75;;;;;;;2.08;84.75;99092.28;2552968;28;20428;-78
2024/01/05 03:31:32;;;;;;;9.38;4.72;;;;;;;2.11;84.88;99100.00;2553797;28;20044;-78
2024/01/05 03:32:45;;;;;;;11.77;3.90;;;;;;;2.15;84.87;99095.72;2551523;28;20048;-78
2024/01/05 03:34:00;;;;;;;11.95;4.70;;;;;;;2.17;84.66;99101.75;2547177;28;20051;-78
2024/01/05 03:35:13;;;;;;;8.45;4.65;;;;;;;2.21;84.79;99105.16;2552910;28;20062;-79
2024/01/05 03:36:27;;;;;;;6.68;4.60;;;;;;;2.23;84.85;99098.31;2553673;28;20055;-78
2024/01/05 03:37:41;;;;;;;7.63;5.10;;;;;;;2.24;84.76;99103.44;2553430;28;20131;-78
2024/01/05 03:38:55;;;;;;;12.82;4.18;;;;;;;2.25;84.87;99106.88;2549923;28;20072;-78
2024/01/05 03:40:10;;;;;;;8.52;4.30;;;;;;;2.27;84.92;99110.28;2547984;28;20040;-78
2024/01/05 03:41:23;;;;;;;8.13;4.00;;;;;;;2.29;85.11;99104.28;2553657;28;20055;-77
2024/01/05 03:42:39;;;;;;;9.70;4.75;;;;;;;2.34;84.98;99112.03;2545087;28;20044;-77
2024/01/05 03:43:52;;;;;;;7.80;5.15;;;;;;;2.39;84.93;99102.59;2551309;28;20048;-77
2024/01/05 03:45:08;;;;;;;11.52;5.00;;;;;;;2.42;84.90;99101.72;2548314;28;20048;-77
2024/01/05 03:46:21;;;;;;;10.57;4.63;;;;;;;2.43;85.02;99096.59;2553180;28;20056;-78
2024/01/05 03:47:36;;;;;;;6.78;3.60;;;;;;;2.43;84.92;99083.72;2545466;28;20053;-77
2024/01/05 03:48:49;;;;;;;6.93;3.97;;;;;;;2.46;84.79;99088.84;2554354;28;20063;-78
2024/01/05 03:50:05;;;;;;;6.32;4.30;;;;;;;2.48;84.78;99093.97;2549569;28;20387;-77
2024/01/05 03:51:18;;;;;;;6.43;2.80;;;;;;;2.48;84.87;99078.53;2543630;28;20045;-78
2024/01/05 03:52:33;;;;;;;13.15;3.38;;;;;;;2.57;85.10;99079.38;2542725;28;20053;-78
2024/01/05 03:53:46;;;;;;;8.20;5.00;;;;;;;2.66;84.90;99085.38;2551976;28;20508;-78
2024/01/05 03:55:01;;;;;;;8.98;4.43;;;;;;;2.65;84.79;99076.78;2546835;28;20036;-79
2024/01/05 03:56:15;;;;;;;5.18;3.78;;;;;;;2.68;84.74;99087.09;2547675;28;20567;-78
2024/01/05 03:57:30;;;;;;;11.80;4.10;;;;;;;2.72;84.64;99082.81;2551725;28;20076;-78
2024/01/05 03:58:45;;;;;;;6.45;3.92;;;;;;;2.76;84.78;99087.06;2543036;28;20067;-78
2024/01/05 04:00:00;;;;;;;6.07;3.53;;;;;;;2.78;84.70;99081.06;2547120;28;20051;-78
2024/01/05 04:01:13;;;;;;;10.55;4.32;;;;;;;2.82;84.69;99087.94;2548207;28;20079;-78
2024/01/05 04:02:28;;;;;;;17.92;6.95;;;;;;;2.84;84.75;99088.78;2543376;28;20045;-78
2024/01/05 04:03:41;;;;;;;11.93;3.67;;;;;;;2.83;84.61;99083.63;2545083;28;20056;-78
2024/01/05 04:04:56;;;;;;;8.73;3.67;;;;;;;2.86;84.73;99082.75;2553321;28;20035;-77
2024/01/05 04:06:18;;;;;;;9.20;4.40;;;;;;;2.88;84.64;99078.47;2554455;28;20055;-77
2024/01/05 04:07:32;;;;;;;10.13;4.85;;;;;;;2.89;84.62;99082.75;2558867;28;20072;-77
2024/01/05 04:08:46;;;;;;;9.07;3.40;;;;;;;2.91;84.69;99078.44;2545309;28;20071;-78
2024/01/05 04:10:01;;;;;;;9.32;3.63;;;;;;;2.93;84.89;99077.59;2553514;28;20044;-77
2024/01/05 04:11:17;;;;;;;6.97;3.30;;;;;;;2.96;84.97;99075.00;2553018;28;20055;-77
2024/01/05 04:12:32;;;;;;;15.40;5.07;;;;;;;2.99;84.93;99072.41;2553281;28;20055;-77
2024/01/05 04:13:46;;;;;;;9.55;3.92;;;;;;;3.02;85.03;99075.00;2543588;28;20049;-77
2024/01/05 04:15:01;;;;;;;8.18;4.15;;;;;;;3.06;84.97;99066.38;2542763;28;20064;-77
2024/01/05 04:16:14;;;;;;;8.90;3.70;;;;;;;3.09;84.71;99068.06;2542885;28;20056;-78
2024/01/05 04:17:29;;;;;;;7.70;4.85;;;;;;;3.09;84.80;99073.22;2550684;28;20048;-77
2024/01/05 04:18:42;;;;;;;6.03;3.65;;;;;;;3.06;84.65;99068.94;2544406;28;20045;-77
2024/01/05 04:19:57;;;;;;;11.85;5.28;;;;;;;3.07;84.79;99069.78;2545974;28;20037;-78
2024/01/05 04:21:11;;;;;;;5.57;3.08;;;;;;;3.05;84.72;99067.25;2553244;28;20049;-77
2024/01/05 04:22:30;;;;;;;9.57;3.38;;;;;;;3.06;84.78;99066.38;2545938;28;20050;-77
2024/01/05 04:23:43;;;;;;;14.77;5.93;;;;;;;3.09;84.60;99073.22;2551350;28;20059;-77
2024/01/05 04:24:58;;;;;;;11.85;4.95;;;;;;;3.10;84.75;99063.78;2542876;28;20045;-77
2024/01/05 04:26:12;;;;;;;8.05;4.60;;;;;;;3.11;84.71;99071.50;2547343;28;20052;-77
2024/01/05 04:27:26;;;;;;;6.40;3.42;;;;;;;3.12;84.65;99068.06;2546081;28;20049;-77
2024/01/05 04:28:40;;;;;;;9.77;3.20;;;;;;;3.12;84.70;99075.78;2550930;28;20696;-78
2024/01/05 04:29:55;;;;;;;7.88;4.05;;;;;;;3.12;84.62;99064.63;2545606;28;20059;-78
2024/01/05 04:31:09;;;;;;;9.57;5.28;;;;;;;3.13;84.63;99066.34;2548085;28;20418;-77
2024/01/05 04:32:23;;;;;;;6.07;3.60;;;;;;;3.14;84.56;99068.06;2542834;28;20059;-77
2024/01/05 04:33:37;;;;;;;4.22;3.40;;;;;;;3.16;84.47;99069.78;2551149;28;20055;-77
2024/01/05 04:34:51;;;;;;;7.70;3.75;;;;;;;3.19;84.70;99059.44;2550116;28;20049;-77
2024/01/05 04:36:05;;;;;;;9.40;3.60;;;;;;;3.23;84.56;99062.88;2547008;28;20036;-78
2024/01/05 04:37:20;;;;;;;11.15;3.55;;;;;;;3.25;84.48;99066.28;2547278;28;20148;-78
2024/01/05 04:38:34;;;;;;;6.80;3.55;;;;;;;3.26;84.43;99063.72;2550318;28;20047;-77
2024/01/05 04:39:49;;;;;;;12.57;3.45;;;;;;;3.28;84.43;99068.88;2553045;28;20044;-77
2024/01/05 04:41:03;;;;;;;5.88;3.30;;;;;;;3.28;84.31;99068.88;2552908;28;20459;-78
2024/01/05 04:42:17;;;;;;;11.82;3.08;;;;;;;3.30;84.39;99064.53;2547066;28;20052;-78
2024/01/05 04:43:30;;;;;;;12.02;3.65;;;;;;;3.32;84.50;99067.97;2550574;28;20044;-77
2024/01/05 04:44:45;;;;;;;9.57;4.03;;;;;;;3.34;84.56;99061.09;2552942;28;20048;-77
2024/01/05 04:46:00;;;;;;;11.95;5.30;;;;;;;3.37;84.55;99063.66;2549865;28;20049;-77
2024/01/05 04:47:14;;;;;;;7.88;4.07;;;;;;;3.40;84.39;99060.19;2547781;28;20048;-78
2024/01/05 04:48:28;;;;;;;6.53;3.70;;;;;;;3.40;84.52;99058.47;2553074;28;20051;-78
2024/01/05 04:49:42;;;;;;;6.93;2.70;;;;;;;3.41;84.51;99062.78;2552404;28;20413;-78
2024/01/05 04:50:56;;;;;;;7.05;2.53;;;;;;;3.42;84.05;99061.91;2542600;28;20049;-78
2024/01/05 04:52:10;;;;;;;5.20;2.83;;;;;;;3.44;84.13;99054.19;2542989;28;20051;-79
2024/01/05 04:53:24;;;;;;;7.30;3.10;;;;;;;3.43;84.34;99053.34;2549163;28;20036;-78
2024/01/05 04:54:38;;;;;;;3.55;2.55;;;;;;;3.45;84.25;99056.72;2551765;28;20493;-78
2024/01/05 04:55:52;;;;;;;7.35;3.35;;;;;;;3.46;84.42;99055.88;2550896;28;20052;-78
2024/01/05 04:57:06;;;;;;;11.82;5.28;;;;;;;3.48;84.24;99055.84;2543206;28;20055;-78
2024/01/05 04:58:19;;;;;;;13.02;3.15;;;;;;;3.51;84.29;99050.69;2542301;28;20051;-78
2024/01/05 04:59:34;;;;;;;9.32;3.30;;;;;;;3.53;84.25;99054.09;2550656;28;20103;-78
2024/01/05 05:00:47;;;;;;;6.57;3.05;;;;;;;3.55;84.20;99048.97;2551622;28;20486;-78
2024/01/05 05:02:04;;;;;;;8.13;3.95;;;;;;;3.56;84.38;99053.22;2543012;28;20044;-77
2024/01/05 05:03:17;;;;;;;7.85;2.75;;;;;;;3.56;84.11;99050.66;2542769;28;20056;-77
2024/01/05 05:04:31;;;;;;;5.93;2.55;;;;;;;3.57;84.28;99039.50;2543856;28;20310;-78
2024/01/05 05:05:45;;;;;;;6.03;3.20;;;;;;;3.57;84.23;99050.66;2543763;28;20520;-77
2024/01/05 05:07:00;;;;;;;14.95;5.65;;;;;;;3.59;84.02;99042.91;2552248;28;20048;-77
2024/01/05 05:08:14;;;;;;;9.30;2.88;;;;;;;3.60;84.06;99039.47;2552837;28;20064;-78
2024/01/05 05:09:29;;;;;;;5.10;3.03;;;;;;;3.61;84.16;99041.16;2552843;28;20064;-77
2024/01/05 05:10:42;;;;;;;8.05;3.40;;;;;;;3.62;84.28;99041.16;2543426;28;20049;-78
2024/01/05 05:11:57;;;;;;;5.70;3.35;;;;;;;3.64;84.23;99042.03;2542795;28;20060;-77
2024/01/05 05:13:10;;;;;;;9.60;3.35;;;;;;;3.65;84.01;99038.56;2547385;28;20419;-78
2024/01/05 05:14:25;;;;;;;5.22;2.90;;;;;;;3.65;83.80;99037.72;2552460;28;20040;-78
2024/01/05 05:15:38;;;;;;;7.60;3.05;;;;;;;3.65;84.02;99037.72;2544505;28;20048;-78
2024/01/05 05:16:53;;;;;;;7.63;2.80;;;;;;;3.66;83.95;99032.53;2550983;28;20408;-78
2024/01/05 05:18:08;;;;;;;4.30;2.60;;;;;;;3.66;84.03;99034.25;2546418;28;20045;-78
2024/01/05 05:19:22;;;;;;;3.30;2.67;;;;;;;3.68;84.06;99035.09;2553101;28;20053;-78
2024/01/05 05:20:35;;;;;;;9.55;2.78;;;;;;;3.66;83.96;99037.69;2552830;28;20620;-78
2024/01/05 05:21:50;;;;;;;6.30;3.33;;;;;;;3.69;83.88;99039.38;2553172;28;20058;-78
2024/01/05 05:23:03;;;;;;;5.75;2.63;;;;;;;3.68;84.07;99032.53;2549285;28;20045;-78
2024/01/05 05:24:18;;;;;;;7.47;3.03;;;;;;;3.69;84.13;99039.38;2543316;28;20052;-78
2024/01/05 05:25:32;;;;;;;7.40;3.08;;;;;;;3.70;83.85;99035.97;2543132;28;20421;-77
2024/01/05 05:26:46;;;;;;;9.38;3.25;;;;;;;3.70;84.06;99036.81;2542020;28;20045;-77
2024/01/05 05:27:59;;;;;;;5.40;2.10;;;;;;;3.71;83.93;99037.66;2545286;28;20053;-78
2024/01/05 05:29:14;;;;;;;10.40;4.00;;;;;;;3.73;84.09;99041.09;2552810;28;20054;-78
2024/01/05 05:30:27;;;;;;;7.55;3.35;;;;;;;3.75;84.09;99043.69;2545285;28;20098;-78
2024/01/05 05:31:42;;;;;;;8.15;3.03;;;;;;;3.76;84.13;99048.81;2542501;28;20124;-78
2024/01/05 05:32:55;;;;;;;6.60;2.90;;;;;;;3.76;84.14;99041.06;2542605;28;20045;-78
2024/01/05 05:34:11;;;;;;;12.13;2.90;;;;;;;3.79;84.08;99045.34;2542150;28;20452;-78
2024/01/05 05:35:25;;;;;;;9.07;2.97;;;;;;;3.79;84.06;99040.19;2550054;28;20029;-79
2024/01/05 05:36:39;;;;;;;6.60;3.45;;;;;;;3.81;84.02;99039.31;2554376;28;20049;-79
2024/01/05 05:37:52;;;;;;;7.22;2.50;;;;;;;3.82;83.71;99040.16;2544891;28;20076;-78
2024/01/05 05:39:07;;;;;;;5.82;3.00;;;;;;;3.82;84.13;99035.88;2542087;28;20037;-78
2024/01/05 05:40:20;;;;;;;3.97;2.70;;;;;;;3.83;84.07;99037.59;2542671;28;20516;-78
2024/01/05 05:41:35;;;;;;;10.25;2.72;;;;;;;3.86;84.09;99047.03;2549849;28;20048;-78
2024/01/05 05:42:48;;;;;;;5.75;2.60;;;;;;;3.87;83.91;99039.28;2550761;28;20055;-78
2024/01/05 05:44:03;;;;;;;7.68;5.13;;;;;;;3.90;84.22;99043.56;2542471;28;20040;-78
2024/01/05 05:45:16;;;;;;;2.33;2.05;;;;;;;3.91;84.17;99038.38;2547501;28;20048;-78
2024/01/05 05:46:31;;;;;;;7.55;2.28;;;;;;;3.93;84.08;99044.38;2552302;28;20048;-78
2024/01/05 05:47:44;;;;;;;5.07;2.42;;;;;;;3.98;84.10;99049.53;2543839;28;20056;-78
2024/01/05 05:48:59;;;;;;;3.55;2.45;;;;;;;3.99;83.99;99050.38;2550165;28;20399;-78
2024/01/05 05:50:14;;;;;;;6.15;2.85;;;;;;;4.01;84.08;99043.47;2546423;28;20055;-78
2024/01/05 05:51:28;;;;;;;6.35;2.58;;;;;;;4.03;84.08;99045.19;2552682;28;20093;-78